Sunday, November 19, 2017, 5:38 AM EST
Back to Local

KOWD, Norwood Memorial Airport

Location: Norwood, MA, United States Lat: 42.183
Local Time: 5:38 AM EST (10:38 GMT) Lon: -71.167
Time Zone: US/Eastern Elev: 49 ft

Show me the last for .
Show Decoded

2017-11-19 04:53 METAR KOWD 190953Z AUTO 20011G22KT 5SM RA BR SCT025 BKN030 OVC037 16/14 A2927
                 RMK AO2 RAB24 SLP912 P0002 T01610139 =
2017-11-19 03:53 METAR KOWD 190853Z AUTO 20010G19KT 10SM OVC024 16/13 A2931 RMK AO2 SLP923 60000
                 T01610133 56043 =
2017-11-19 02:53 METAR KOWD 190753Z AUTO 19010KT 10SM OVC025 15/13 A2934 RMK AO2 SLP933 T01500133
                 =
2017-11-19 02:15 METAR KOWD 190715Z AUTO 19009KT 10SM BKN029 OVC035 14/13 A2936 RMK AO2 T01390128
                 =
2017-11-19 01:53 METAR KOWD 190653Z AUTO 18008KT 10SM FEW024 OVC032 14/12 A2938 RMK AO2 RAE0558
                 SLP950 P0000 T01390122 =
2017-11-19 00:53 METAR KOWD 190553Z AUTO 18006KT 10SM -RA SCT011 BKN023 OVC038 12/11 A2943 RMK
                 AO2 SLP966 P0001 60009 T01220111 10122 20067 58036 =
2017-11-19 00:45 METAR KOWD 190545Z AUTO 18004KT 10SM -RA SCT011 BKN021 OVC032 12/11 A2944 RMK
                 AO2 P0001 T01220111 =
2017-11-18 23:53 METAR KOWD 190453Z AUTO 18005KT 7SM -RA FEW022 BKN038 OVC095 12/11 A2948 RMK AO2
                 RAB16 SLP982 P0002 T01170106 401221067 =
2017-11-18 22:53 METAR KOWD 190353Z AUTO 19009KT 10SM FEW025 OVC047 12/10 A2951 RMK AO2 SLP991
                 T01220100 =
2017-11-18 22:43 METAR KOWD 190343Z AUTO 19011G18KT 10SM FEW027 OVC043 11/10 A2951 RMK AO2
                 T01110100 =
2017-11-18 22:34 METAR KOWD 190334Z AUTO 18007KT 10SM BKN025 BKN033 OVC043 11/09 A2951 RMK AO2
                 T01060094 =
2017-11-18 21:53 METAR KOWD 190253Z AUTO 00000KT 6SM BR OVC034 07/07 A2954 RMK AO2 RAB05E22
                 SLP003 P0000 60006 T00720067 58040 =
2017-11-18 20:53 METAR KOWD 190153Z AUTO 00000KT 6SM BR OVC060 07/06 A2958 RMK AO2 RAE44 SLP018
                 P0003 T00670061 =
2017-11-18 19:53 METAR KOWD 190053Z 00000KT 8SM -RA FEW040 OVC055 07/06 A2962 RMK AO2 RAB20
                 SLP031 P0003 T00670056 =
2017-11-18 18:53 METAR KOWD 182353Z 00000KT 10SM OVC065 07/06 A2966 RMK AO2 RAE2254 SLP043 P0000
                 60000 T00670056 10083 20061 58021 =
2017-11-18 17:53 METAR KOWD 182253Z 00000KT 10SM -RA OVC085 06/04 A2968 RMK AO2 SLP052 P0000
                 T00610039 =
2017-11-18 16:53 METAR KOWD 182153Z 00000KT 10SM -RA OVC085 07/03 A2971 RMK AO2 RAB33 SLP059
                 P0000 T00670028 =
2017-11-18 15:53 METAR KOWD 182053Z 12003KT 10SM BKN110 08/01 A2972 RMK AO2 SLP064 T00830006
                 58036 =
2017-11-18 14:53 METAR KOWD 181953Z 17004KT 10SM CLR 08/M01 A2976 RMK AO2 SLP078 T00831006 =
2017-11-18 13:53 METAR KOWD 181853Z 17006KT 10SM CLR 08/M01 A2979 RMK AO2 SLP090 T00831011 =
2017-11-18 12:53 METAR KOWD 181753Z 20008KT 10SM CLR 08/M04 A2982 RMK AO2 SLP100 T00831039 10083
                 21056 58040 =
2017-11-18 11:53 METAR KOWD 181653Z 20007KT 10SM CLR 07/M07 A2987 RMK AO2 SLP115 T00721072 =
2017-11-18 10:53 METAR KOWD 181553Z 19004KT 10SM BKN100 06/M08 A2991 RMK AO2 SLP130 T00611083 =
2017-11-18 09:53 METAR KOWD 181453Z 00000KT 10SM SCT050 04/M05 A2994 RMK AO2 SLP140 T00391050
                 58016 =
2017-11-18 08:53 METAR KOWD 181353Z 00000KT 10SM CLR 02/M04 A2995 RMK AO2 SLP143 T00221039 =
2017-11-18 07:53 METAR KOWD 181253Z 00000KT 10SM CLR M01/M04 A2998 RMK AO2 SLP154 T10111044 =
2017-11-18 06:53 METAR KOWD 181153Z 00000KT 10SM CLR M06/M07 A2999 RMK AO2 SLP156 T10561072 11044
                 21067 51005 =
2017-11-18 05:53 METAR KOWD 181053Z AUTO 00000KT 10SM CLR M05/M08 A2998 RMK AO2 SLP153 T10501083
                 =

Support USWX by starting your Amazon purchase here.